Hovedside
METAR-TAF:

METAR-TAF

Lufthavner :

Uppsala, Sverige

breddegrad: 59-53N, lengdegrad: 017-36E, høyde over havet: 21 m

Gjeldene værobservasjon

Denne rapporten ble laget for 31 minutter siden, klokken 15:50 UTC
Vind 3 kt fra Nordvest
Temperatur 23°C
Luftfuktighet 53%
Trykk 1018 hPa
Sikt 10 km eller mer

METAR: ESCM 241550Z AUTO 31003KT 9999 NCD 23/13 Q1018

Tid: 18:21 (16:21 UTC)

Varsel

Denne rapporten ble laget for 4 timer og 54 minutter siden, klokken 11:27 UTC
Varsel gyldig fra 24. klokken 12 UTC til 24. klokken 14 UTC
Vind 10 kt fra Nord-nordøst
Sikt 10 km eller mer
ingen skyer under 1500 m og ingen bygeskyer

TAF: ESCM 241127Z 2412/2414 03010KT CAVOK

Værobservasjoner og værvarsel for over 4000 flyplasser (METAR- og TAF-rapporter).

Tilgjengelige stasjoner er representert av de røde og gule prikkene på kartet.

Hold musepekeren over prikken for å se navnet på stasjonen.

Klikk så for å se værobservasjoner og -varsler.

For å forandre kartet kan du klikke på den grønne knappen med svart kryss for å zoome inn, på den grønne knappen med strek for å zoome ut, eller på de grønne pilene for å se tilstøtende kart.


METAR-TAF: